Wetterdaten: Woche 23.07.18 - 29.07.18 (KW30)
Datum Zeit Temp. Aussen Temp. o. S. +5cm Feuchte Auss Luftdruck Regen Sonnenschein Regendauer Solar Windben Empfang
23.07.2018 00:00 20,2 C 18,2 C 18,1 C 75 % 1014,3 hPa 0,0 l/m 0,00 h 0,00 h 0 W/m 0,5 km/h (0 Bft) 97,44 %
23.07.2018 01:00 19,0 C 17,5 C 17,6 C 79 % 1014,3 hPa 0,0 l/m 0,00 h 0,00 h 0 W/m 0,2 km/h (0 Bft) 97,87 %
23.07.2018 02:00 18,3 C 17,0 C 17,1 C 83 % 1014,4 hPa 0,0 l/m 0,00 h 0,00 h 0 W/m 0,1 km/h (0 Bft) 97,15 %
23.07.2018 03:00 17,7 C 16,4 C 16,6 C 85 % 1014,4 hPa 0,0 l/m 0,00 h 0,00 h 0 W/m 0,5 km/h (0 Bft) 97,07 %
23.07.2018 04:00 17,1 C 15,6 C 15,8 C 86 % 1014,5 hPa 0,0 l/m 0,00 h 0,00 h 0 W/m 0,0 km/h (0 Bft) 97,68 %
23.07.2018 05:00 16,4 C 15,5 C 15,6 C 87 % 1014,6 hPa 0,0 l/m 0,00 h 0,00 h 6 W/m 0,0 km/h (0 Bft) 98,07 %
23.07.2018 06:00 16,5 C 17,2 C 16,4 C 90 % 1014,9 hPa 0,0 l/m 0,00 h 0,00 h 35 W/m 0,0 km/h (0 Bft) 98,72 %
23.07.2018 07:00 17,6 C 19,4 C 17,9 C 90 % 1015,1 hPa 0,0 l/m 0,07 h 0,00 h 100 W/m 0,1 km/h (0 Bft) 95,82 %
23.07.2018 08:00 19,6 C 21,7 C 19,6 C 82 % 1015,2 hPa 0,0 l/m 0,27 h 0,00 h 175 W/m 2,1 km/h (1 Bft) 97,93 %
23.07.2018 09:00 21,3 C 22,8 C 20,4 C 74 % 1015,4 hPa 0,0 l/m 0,00 h 0,00 h 203 W/m 2,3 km/h (1 Bft) 97,87 %
23.07.2018 10:00 22,6 C 25,0 C 21,6 C 70 % 1015,4 hPa 0,0 l/m 0,47 h 0,00 h 328 W/m 2,6 km/h (1 Bft) 97,61 %
23.07.2018 11:00 24,8 C 29,0 C 23,2 C 65 % 1015,4 hPa 0,0 l/m 0,97 h 0,00 h 491 W/m 5,7 km/h (1 Bft) 97,47 %
23.07.2018 12:00 27,7 C 34,2 C 25,2 C 58 % 1015,1 hPa 0,0 l/m 0,93 h 0,00 h 702 W/m 6,2 km/h (2 Bft) 97,66 %
23.07.2018 13:00 28,9 C 31,8 C 25,9 C 55 % 1014,9 hPa 0,0 l/m 0,63 h 0,00 h 628 W/m 8,1 km/h (2 Bft) 97,16 %
23.07.2018 14:00 28,5 C 29,1 C 26,3 C 57 % 1014,6 hPa 0,0 l/m 0,73 h 0,00 h 709 W/m 7,2 km/h (2 Bft) 96,38 %
23.07.2018 15:00 28,9 C 30,3 C 27,1 C 56 % 1014,5 hPa 0,0 l/m 0,90 h 0,00 h 752 W/m 8,6 km/h (2 Bft) 98,86 %
23.07.2018 16:00 30,2 C 33,5 C 28,0 C 53 % 1014,2 hPa 0,0 l/m 0,93 h 0,00 h 774 W/m 6,7 km/h (2 Bft) 98,84 %
23.07.2018 17:00 30,6 C 31,1 C 28,0 C 52 % 1013,9 hPa 0,0 l/m 0,67 h 0,00 h 466 W/m 7,2 km/h (2 Bft) 95,14 %
23.07.2018 18:00 30,5 C 28,9 C 25,5 C 53 % 1013,6 hPa 0,0 l/m 1,00 h 0,00 h 447 W/m 7,5 km/h (2 Bft) 97,64 %
23.07.2018 19:00 29,1 C 24,0 C 20,0 C 56 % 1013,5 hPa 0,0 l/m 0,23 h 0,00 h 142 W/m 6,6 km/h (2 Bft) 99,35 %
23.07.2018 20:00 27,3 C 23,4 C 19,1 C 61 % 1013,5 hPa 0,0 l/m 0,00 h 0,00 h 48 W/m 3,7 km/h (1 Bft) 97,87 %
23.07.2018 21:00 25,9 C 24,1 C 20,4 C 65 % 1013,6 hPa 0,0 l/m 0,00 h 0,00 h 13 W/m 0,1 km/h (0 Bft) 95,50 %
23.07.2018 22:00 24,4 C 22,5 C 20,3 C 70 % 1013,8 hPa 0,0 l/m 0,00 h 0,00 h 0 W/m 0,2 km/h (0 Bft) 99,79 %
23.07.2018 23:00 23,0 C 21,4 C 19,8 C 73 % 1013,8 hPa 0,0 l/m 0,00 h 0,00 h 0 W/m 0,4 km/h (0 Bft) 97,58 %
24.07.2018 00:00 21,7 C 20,2 C 19,2 C 77 % 1013,9 hPa 0,0 l/m 0,00 h 0,00 h 0 W/m 0,5 km/h (0 Bft) 95,82 %
24.07.2018 01:00 20,8 C 19,1 C 18,7 C 81 % 1013,8 hPa 0,0 l/m 0,00 h 0,00 h 0 W/m 0,0 km/h (0 Bft) 98,73 %
24.07.2018 02:00 20,0 C 19,1 C 18,3 C 84 % 1013,5 hPa 0,0 l/m 0,00 h 0,00 h 0 W/m 1,8 km/h (1 Bft) 97,37 %
24.07.2018 03:00 20,1 C 19,9 C 18,8 C 84 % 1013,3 hPa 0,0 l/m 0,00 h 0,00 h 0 W/m 3,8 km/h (1 Bft) 97,94 %
24.07.2018 04:00 20,1 C 19,3 C 18,3 C 84 % 1013,1 hPa 0,0 l/m 0,00 h 0,00 h 0 W/m 1,7 km/h (1 Bft) 97,01 %
24.07.2018 05:00 19,8 C 18,9 C 18,2 C 85 % 1013,2 hPa 0,0 l/m 0,00 h 0,00 h 6 W/m 1,7 km/h (1 Bft) 96,63 %
24.07.2018 06:00 19,3 C 18,7 C 17,8 C 86 % 1013,2 hPa 0,0 l/m 0,00 h 0,00 h 23 W/m 1,5 km/h (1 Bft) 99,29 %
24.07.2018 07:00 19,3 C 19,6 C 18,4 C 88 % 1013,2 hPa 0,0 l/m 0,00 h 0,00 h 47 W/m 3,3 km/h (1 Bft) 96,64 %
24.07.2018 08:00 20,5 C 22,1 C 19,9 C 86 % 1013,3 hPa 0,0 l/m 0,50 h 0,00 h 188 W/m 5,2 km/h (1 Bft) 96,30 %
24.07.2018 09:00 23,2 C 25,2 C 22,0 C 78 % 1013,1 hPa 0,0 l/m 1,00 h 0,00 h 423 W/m 6,5 km/h (2 Bft) 99,52 %
24.07.2018 10:00 26,1 C 30,2 C 23,9 C 65 % 1012,9 hPa 0,0 l/m 1,00 h 0,00 h 574 W/m 6,6 km/h (2 Bft) 97,11 %
24.07.2018 11:00 30,0 C 38,0 C 25,5 C 53 % 1012,7 hPa 0,0 l/m 1,00 h 0,00 h 686 W/m 7,1 km/h (2 Bft) 96,49 %
24.07.2018 12:00 32,4 C 38,9 C 27,3 C 46 % 1012,3 hPa 0,0 l/m 0,73 h 0,00 h 590 W/m 8,2 km/h (2 Bft) 99,60 %
24.07.2018 13:00 32,9 C 37,2 C 28,7 C 44 % 1011,9 hPa 0,0 l/m 1,00 h 0,00 h 837 W/m 8,3 km/h (2 Bft) 96,51 %
24.07.2018 14:00 32,4 C 32,0 C 29,0 C 44 % 1011,5 hPa 0,0 l/m 0,83 h 0,00 h 738 W/m 8,2 km/h (2 Bft) 98,83 %
24.07.2018 15:00 32,2 C 32,8 C 29,5 C 43 % 1011,0 hPa 0,0 l/m 0,90 h 0,00 h 752 W/m 7,0 km/h (2 Bft) 96,58 %
24.07.2018 16:00 33,4 C 37,5 C 30,3 C 41 % 1010,7 hPa 0,0 l/m 1,00 h 0,00 h 742 W/m 6,6 km/h (2 Bft) 98,19 %
24.07.2018 17:00 33,9 C 35,0 C 30,8 C 40 % 1010,4 hPa 0,0 l/m 1,00 h 0,00 h 612 W/m 7,7 km/h (2 Bft) 97,38 %
24.07.2018 18:00 33,8 C 32,9 C 30,5 C 40 % 1010,2 hPa 0,0 l/m 0,83 h 0,00 h 348 W/m 5,5 km/h (1 Bft) 99,47 %
24.07.2018 19:00 32,2 C 30,4 C 25,9 C 46 % 1010,0 hPa 0,0 l/m 0,10 h 0,00 h 97 W/m 1,4 km/h (1 Bft) 97,87 %
24.07.2018 20:00 30,0 C 25,7 C 19,6 C 51 % 1010,2 hPa 0,0 l/m 0,00 h 0,00 h 43 W/m 3,9 km/h (1 Bft) 98,01 %
24.07.2018 21:00 27,6 C 25,5 C 21,3 C 56 % 1010,4 hPa 0,0 l/m 0,00 h 0,00 h 10 W/m 0,7 km/h (0 Bft) 98,14 %
24.07.2018 22:00 25,8 C 24,1 C 21,1 C 61 % 1010,8 hPa 0,0 l/m 0,00 h 0,00 h 0 W/m 0,3 km/h (0 Bft) 97,14 %
24.07.2018 23:00 24,9 C 24,0 C 22,7 C 65 % 1011,1 hPa 0,0 l/m 0,00 h 0,00 h 0 W/m 6,9 km/h (2 Bft) 97,78 %
25.07.2018 00:00 25,1 C 24,1 C 23,3 C 70 % 1011,4 hPa 0,0 l/m 0,00 h 0,00 h 0 W/m 8,2 km/h (2 Bft) 97,59 %
25.07.2018 01:00 24,5 C 23,0 C 22,5 C 73 % 1011,5 hPa 0,0 l/m 0,00 h 0,00 h 0 W/m 4,7 km/h (1 Bft) 97,80 %
25.07.2018 02:00 23,5 C 21,9 C 21,8 C 76 % 1011,5 hPa 0,0 l/m 0,00 h 0,00 h 0 W/m 4,7 km/h (1 Bft) 98,44 %
25.07.2018 03:00 22,7 C 21,4 C 21,3 C 78 % 1011,4 hPa 0,0 l/m 0,00 h 0,00 h 0 W/m 3,9 km/h (1 Bft) 96,57 %
25.07.2018 04:00 21,9 C 20,1 C 20,1 C 80 % 1011,5 hPa 0,0 l/m 0,00 h 0,00 h 0 W/m 1,2 km/h (1 Bft) 97,54 %
25.07.2018 05:00 21,0 C 20,0 C 19,9 C 81 % 1011,7 hPa 0,0 l/m 0,00 h 0,00 h 6 W/m 1,3 km/h (1 Bft) 99,06 %
25.07.2018 06:00 20,5 C 19,3 C 19,0 C 83 % 1012,1 hPa 0,0 l/m 0,00 h 0,00 h 23 W/m 0,5 km/h (0 Bft) 95,54 %
25.07.2018 07:00 20,2 C 19,1 C 18,7 C 86 % 1012,5 hPa 0,0 l/m 0,00 h 0,00 h 51 W/m 2,3 km/h (1 Bft) 98,20 %
25.07.2018 08:00 20,7 C 18,8 C 18,0 C 88 % 1012,9 hPa 0,2 l/m 0,47 h 0,00 h 183 W/m 5,3 km/h (1 Bft) 98,81 %
25.07.2018 09:00 22,3 C 21,3 C 21,1 C 84 % 1013,2 hPa 0,0 l/m 1,00 h 0,00 h 409 W/m 5,9 km/h (2 Bft) 96,20 %
25.07.2018 10:00 25,1 C 28,6 C 24,0 C 74 % 1013,2 hPa 0,0 l/m 1,00 h 0,00 h 545 W/m 7,5 km/h (2 Bft) 97,24 %
25.07.2018 11:00 28,9 C 36,9 C 25,8 C 63 % 1013,2 hPa 0,0 l/m 1,00 h 0,00 h 658 W/m 9,8 km/h (2 Bft) 97,66 %
25.07.2018 12:00 31,8 C 38,6 C 28,0 C 56 % 1013,0 hPa 0,0 l/m 1,00 h 0,00 h 679 W/m 10,4 km/h (2 Bft) 97,84 %
25.07.2018 13:00 33,1 C 37,5 C 29,9 C 50 % 1012,7 hPa 0,0 l/m 1,00 h 0,00 h 797 W/m 10,4 km/h (2 Bft) 98,48 %
25.07.2018 14:00 33,4 C 33,6 C 30,6 C 49 % 1012,3 hPa 0,0 l/m 0,93 h 0,00 h 772 W/m 10,4 km/h (2 Bft) 96,08 %
25.07.2018 15:00 33,4 C 34,3 C 30,8 C 48 % 1011,9 hPa 0,0 l/m 0,67 h 0,00 h 652 W/m 8,4 km/h (2 Bft) 97,50 %
25.07.2018 16:00 33,0 C 28,9 C 28,2 C 53 % 1011,8 hPa 0,4 l/m 0,20 h 0,57 h 213 W/m 7,4 km/h (2 Bft) 98,20 %
25.07.2018 17:00 29,4 C 29,2 C 27,6 C 60 % 1011,6 hPa 0,0 l/m 0,17 h 0,00 h 224 W/m 9,8 km/h (2 Bft) 97,17 %
25.07.2018 18:00 30,6 C 31,2 C 28,9 C 54 % 1011,5 hPa 0,0 l/m 1,00 h 0,00 h 401 W/m 9,8 km/h (2 Bft) 99,28 %
25.07.2018 19:00 31,1 C 30,8 C 28,8 C 51 % 1011,5 hPa 0,0 l/m 1,00 h 0,00 h 194 W/m 8,1 km/h (2 Bft) 96,16 %
25.07.2018 20:00 30,3 C 28,3 C 27,0 C 55 % 1012,0 hPa 0,0 l/m 0,00 h 0,00 h 47 W/m 6,1 km/h (2 Bft) 97,05 %
25.07.2018 21:00 28,3 C 26,4 C 25,2 C 61 % 1012,8 hPa 0,0 l/m 0,00 h 0,00 h 11 W/m 5,0 km/h (1 Bft) 98,06 %
25.07.2018 22:00 26,7 C 24,9 C 24,4 C 64 % 1013,0 hPa 0,0 l/m 0,00 h 0,00 h 0 W/m 6,4 km/h (2 Bft) 98,08 %
25.07.2018 23:00 25,3 C 23,5 C 23,2 C 69 % 1013,0 hPa 0,0 l/m 0,00 h 0,00 h 0 W/m 2,7 km/h (1 Bft) 96,46 %
26.07.2018 00:00 24,3 C 23,0 C 22,9 C 73 % 1013,1 hPa 0,0 l/m 0,00 h 0,00 h 0 W/m 3,4 km/h (1 Bft) 93,37 %
26.07.2018 01:00 23,6 C 21,8 C 21,5 C 76 % 1013,0 hPa 0,0 l/m 0,00 h 0,00 h 0 W/m 0,8 km/h (0 Bft) 99,15 %
26.07.2018 02:00 22,5 C 20,9 C 20,7 C 79 % 1012,8 hPa 0,0 l/m 0,00 h 0,00 h 0 W/m 0,0 km/h (0 Bft) 97,80 %
26.07.2018 03:00 21,7 C 20,3 C 20,2 C 81 % 1012,6 hPa 0,0 l/m 0,00 h 0,00 h 0 W/m 0,2 km/h (0 Bft) 95,80 %
26.07.2018 04:00 21,2 C 20,0 C 19,9 C 83 % 1012,6 hPa 0,0 l/m 0,00 h 0,00 h 0 W/m 0,2 km/h (0 Bft) 98,51 %
26.07.2018 05:00 20,7 C 19,2 C 19,3 C 85 % 1012,5 hPa 0,0 l/m 0,00 h 0,00 h 5 W/m 0,0 km/h (0 Bft) 97,65 %
26.07.2018 06:00 20,1 C 19,1 C 18,9 C 87 % 1012,6 hPa 0,0 l/m 0,00 h 0,00 h 27 W/m 0,0 km/h (0 Bft) 97,59 %
26.07.2018 07:00 20,2 C 20,8 C 19,8 C 90 % 1012,8 hPa 0,0 l/m 0,00 h 0,00 h 67 W/m 0,2 km/h (0 Bft) 96,71 %
26.07.2018 08:00 21,4 C 23,8 C 21,4 C 90 % 1012,8 hPa 0,0 l/m 0,00 h 0,00 h 129 W/m 2,9 km/h (1 Bft) 97,31 %
26.07.2018 09:00 23,9 C 27,3 C 23,5 C 81 % 1012,8 hPa 0,0 l/m 0,97 h 0,00 h 379 W/m 4,4 km/h (1 Bft) 98,83 %
26.07.2018 10:00 27,2 C 32,2 C 25,5 C 67 % 1012,8 hPa 0,0 l/m 1,00 h 0,00 h 548 W/m 5,3 km/h (1 Bft) 96,59 %
26.07.2018 11:00 31,6 C 39,6 C 27,5 C 54 % 1012,6 hPa 0,0 l/m 1,00 h 0,00 h 645 W/m 6,0 km/h (2 Bft) 96,42 %
26.07.2018 12:00 35,1 C 42,2 C 29,9 C 46 % 1012,2 hPa 0,0 l/m 0,80 h 0,00 h 598 W/m 8,2 km/h (2 Bft) 98,68 %
26.07.2018 13:00 36,3 C 39,9 C 32,0 C 41 % 1011,8 hPa 0,0 l/m 1,00 h 0,00 h 807 W/m 9,9 km/h (2 Bft) 99,21 %
26.07.2018 14:00 36,0 C 35,6 C 32,6 C 40 % 1011,3 hPa 0,0 l/m 1,00 h 0,00 h 819 W/m 10,5 km/h (2 Bft) 97,36 %
26.07.2018 15:00 36,4 C 37,0 C 33,3 C 38 % 1010,7 hPa 0,0 l/m 1,00 h 0,00 h 846 W/m 10,9 km/h (2 Bft) 98,71 %
26.07.2018 16:00 36,4 C 37,6 C 32,8 C 41 % 1010,4 hPa 0,0 l/m 0,57 h 0,20 h 480 W/m 9,2 km/h (2 Bft) 97,66 %
26.07.2018 17:00 34,7 C 34,1 C 31,4 C 40 % 1010,3 hPa 0,0 l/m 0,23 h 0,00 h 264 W/m 11,9 km/h (2 Bft) 96,86 %
26.07.2018 18:00 34,2 C 33,4 C 31,1 C 42 % 1010,0 hPa 0,0 l/m 0,20 h 0,00 h 142 W/m 5,5 km/h (1 Bft) 98,26 %
26.07.2018 19:00 32,8 C 31,2 C 29,5 C 46 % 1010,2 hPa 0,0 l/m 0,00 h 0,00 h 75 W/m 3,8 km/h (1 Bft) 97,67 %
26.07.2018 20:00 31,0 C 29,2 C 27,2 C 52 % 1010,4 hPa 0,0 l/m 0,00 h 0,00 h 49 W/m 3,2 km/h (1 Bft) 97,73 %
26.07.2018 21:00 29,2 C 26,9 C 24,7 C 59 % 1010,8 hPa 0,0 l/m 0,00 h 0,00 h 10 W/m 0,0 km/h (0 Bft) 96,72 %
26.07.2018 22:00 27,3 C 25,1 C 23,6 C 64 % 1010,8 hPa 0,0 l/m 0,00 h 0,00 h 0 W/m 0,2 km/h (0 Bft) 97,45 %
26.07.2018 23:00 25,4 C 23,4 C 22,8 C 69 % 1011,1 hPa 0,0 l/m 0,00 h 0,00 h 0 W/m 0,8 km/h (0 Bft) 98,79 %
27.07.2018 00:00 24,5 C 24,3 C 23,0 C 68 % 1011,5 hPa 0,0 l/m 0,00 h 0,00 h 0 W/m 2,5 km/h (1 Bft) 96,22 %
27.07.2018 01:00 25,4 C 25,4 C 23,7 C 59 % 1011,6 hPa 0,0 l/m 0,00 h 0,00 h 0 W/m 5,5 km/h (1 Bft) 97,63 %
27.07.2018 02:00 25,0 C 22,8 C 22,3 C 62 % 1011,6 hPa 0,0 l/m 0,00 h 0,00 h 0 W/m 0,8 km/h (0 Bft) 99,22 %
27.07.2018 03:00 23,0 C 20,9 C 20,6 C 67 % 1011,4 hPa 0,0 l/m 0,00 h 0,00 h 0 W/m 0,1 km/h (0 Bft) 96,25 %
27.07.2018 04:00 21,5 C 19,6 C 19,5 C 71 % 1011,2 hPa 0,0 l/m 0,00 h 0,00 h 0 W/m 0,0 km/h (0 Bft) 96,99 %
27.07.2018 05:00 20,5 C 19,2 C 19,1 C 73 % 1011,0 hPa 0,0 l/m 0,00 h 0,00 h 5 W/m 0,3 km/h (0 Bft) 97,99 %
27.07.2018 06:00 19,9 C 18,9 C 18,4 C 75 % 1011,1 hPa 0,0 l/m 0,00 h 0,00 h 19 W/m 0,1 km/h (0 Bft) 97,13 %
27.07.2018 07:00 19,9 C 21,0 C 19,3 C 77 % 1011,2 hPa 0,0 l/m 0,00 h 0,00 h 35 W/m 2,2 km/h (1 Bft) 99,14 %
27.07.2018 08:00 22,5 C 24,9 C 21,8 C 67 % 1011,3 hPa 0,0 l/m 0,43 h 0,00 h 171 W/m 6,2 km/h (2 Bft) 95,73 %
27.07.2018 09:00 26,4 C 28,5 C 24,5 C 57 % 1011,1 hPa 0,0 l/m 1,00 h 0,00 h 430 W/m 8,1 km/h (2 Bft) 97,80 %
27.07.2018 10:00 29,5 C 33,6 C 26,5 C 50 % 1010,8 hPa 0,0 l/m 1,00 h 0,00 h 575 W/m 9,3 km/h (2 Bft) 99,64 %
27.07.2018 11:00 33,5 C 40,2 C 28,9 C 42 % 1010,5 hPa 0,0 l/m 1,00 h 0,00 h 689 W/m 10,7 km/h (2 Bft) 94,48 %
27.07.2018 12:00 35,9 C 41,5 C 30,9 C 37 % 1010,0 hPa 0,0 l/m 1,00 h 0,00 h 705 W/m 11,2 km/h (2 Bft) 97,56 %
27.07.2018 13:00 36,4 C 40,2 C 32,1 C 35 % 1009,4 hPa 0,0 l/m 0,97 h 0,00 h 838 W/m 9,5 km/h (2 Bft) 97,92 %
27.07.2018 14:00 35,8 C 34,5 C 32,0 C 35 % 1008,7 hPa 0,0 l/m 1,03 h 0,00 h 835 W/m 9,0 km/h (2 Bft) 98,28 %
27.07.2018 15:00 32,5 C 24,2 C 23,8 C 45 % 1008,1 hPa 0,0 l/m 1,00 h 0,00 h 803 W/m 10,2 km/h (2 Bft) 97,59 %
27.07.2018 16:00 34,3 C 39,3 C 31,9 C 36 % 1007,3 hPa 0,0 l/m 1,00 h 0,00 h 701 W/m 8,1 km/h (2 Bft) 98,06 %
27.07.2018 17:00 36,0 C 36,7 C 32,5 C 33 % 1006,8 hPa 0,0 l/m 1,00 h 0,00 h 547 W/m 9,5 km/h (2 Bft) 97,70 %
27.07.2018 18:00 36,1 C 35,6 C 32,7 C 33 % 1006,2 hPa 0,0 l/m 1,00 h 0,00 h 431 W/m 6,5 km/h (2 Bft) 99,74 %
27.07.2018 19:00 35,4 C 34,1 C 30,5 C 33 % 1005,9 hPa 0,0 l/m 0,13 h 0,00 h 83 W/m 5,7 km/h (1 Bft) 99,37 %
27.07.2018 20:00 33,2 C 30,9 C 28,8 C 38 % 1005,6 hPa 0,0 l/m 0,00 h 0,00 h 29 W/m 5,1 km/h (1 Bft) 96,13 %
27.07.2018 21:00 30,1 C 27,3 C 25,5 C 47 % 1005,6 hPa 0,0 l/m 0,00 h 0,00 h 7 W/m 3,2 km/h (1 Bft) 97,32 %
27.07.2018 22:00 27,7 C 25,3 C 23,8 C 52 % 1005,7 hPa 0,0 l/m 0,00 h 0,00 h 0 W/m 0,0 km/h (0 Bft) 97,18 %
27.07.2018 23:00 25,7 C 23,6 C 22,5 C 57 % 1005,5 hPa 0,0 l/m 0,00 h 0,00 h 0 W/m 0,1 km/h (0 Bft) 97,37 %
28.07.2018 00:00 24,3 C 23,7 C 22,3 C 60 % 1005,2 hPa 0,0 l/m 0,00 h 0,00 h 0 W/m 3,9 km/h (1 Bft) 98,25 %
28.07.2018 01:00 25,6 C 25,7 C 23,8 C 56 % 1004,8 hPa 0,0 l/m 0,00 h 0,00 h 0 W/m 8,3 km/h (2 Bft) 96,88 %
28.07.2018 02:00 25,8 C 25,0 C 23,8 C 55 % 1004,8 hPa 0,0 l/m 0,00 h 0,00 h 0 W/m 7,4 km/h (2 Bft) 98,38 %
28.07.2018 03:00 25,4 C 24,1 C 22,8 C 55 % 1004,5 hPa 0,0 l/m 0,00 h 0,00 h 0 W/m 5,0 km/h (1 Bft) 96,88 %
28.07.2018 04:00 24,4 C 23,2 C 22,5 C 60 % 1004,4 hPa 0,0 l/m 0,00 h 0,00 h 0 W/m 6,6 km/h (2 Bft) 97,22 %
28.07.2018 05:00 23,6 C 22,2 C 22,0 C 71 % 1004,6 hPa 0,0 l/m 0,00 h 0,10 h 5 W/m 7,4 km/h (2 Bft) 98,89 %
28.07.2018 06:00 22,2 C 21,0 C 20,8 C 77 % 1003,9 hPa 0,0 l/m 0,23 h 0,00 h 47 W/m 2,1 km/h (1 Bft) 96,18 %
28.07.2018 07:00 22,2 C 22,4 C 21,6 C 77 % 1004,1 hPa 0,0 l/m 0,30 h 0,17 h 57 W/m 5,3 km/h (1 Bft) 97,51 %
28.07.2018 08:00 22,4 C 20,1 C 20,0 C 83 % 1004,7 hPa 0,4 l/m 0,00 h 0,20 h 101 W/m 2,2 km/h (1 Bft) 99,15 %
28.07.2018 09:00 22,2 C 22,5 C 21,3 C 86 % 1005,4 hPa 0,0 l/m 0,07 h 0,00 h 213 W/m 3,8 km/h (1 Bft) 96,09 %
28.07.2018 10:00 22,9 C 23,7 C 22,2 C 82 % 1005,4 hPa 0,0 l/m 0,07 h 0,00 h 248 W/m 4,8 km/h (1 Bft) 96,44 %
28.07.2018 11:00 24,2 C 25,8 C 23,5 C 77 % 1006,0 hPa 0,0 l/m 0,30 h 0,03 h 326 W/m 5,8 km/h (2 Bft) 98,35 %
28.07.2018 12:00 25,4 C 27,1 C 23,9 C 73 % 1006,0 hPa 0,0 l/m 0,27 h 0,13 h 356 W/m 4,8 km/h (1 Bft) 97,90 %
28.07.2018 13:00 27,0 C 29,1 C 25,6 C 66 % 1005,9 hPa 0,0 l/m 0,47 h 0,00 h 500 W/m 7,4 km/h (2 Bft) 96,35 %
28.07.2018 14:00 28,0 C 28,7 C 26,5 C 62 % 1005,9 hPa 0,0 l/m 0,40 h 0,00 h 475 W/m 8,1 km/h (2 Bft) 97,50 %
28.07.2018 15:00 28,8 C 29,4 C 27,3 C 58 % 1006,0 hPa 0,0 l/m 0,63 h 0,00 h 562 W/m 9,6 km/h (2 Bft) 99,36 %
28.07.2018 16:00 29,1 C 30,4 C 27,4 C 56 % 1006,0 hPa 0,0 l/m 0,93 h 0,00 h 602 W/m 12,6 km/h (3 Bft) 95,36 %
28.07.2018 17:00 28,5 C 28,4 C 26,9 C 55 % 1006,6 hPa 0,0 l/m 0,53 h 0,00 h 338 W/m 9,9 km/h (2 Bft) 97,75 %
28.07.2018 18:00 27,5 C 26,5 C 25,6 C 56 % 1007,3 hPa 0,0 l/m 0,23 h 0,00 h 171 W/m 13,0 km/h (3 Bft) 99,82 %
28.07.2018 19:00 25,8 C 25,2 C 24,5 C 57 % 1008,1 hPa 0,0 l/m 0,00 h 0,00 h 75 W/m 8,9 km/h (2 Bft) 95,66 %
28.07.2018 20:00 25,3 C 24,1 C 23,7 C 54 % 1009,0 hPa 0,0 l/m 0,00 h 0,00 h 35 W/m 6,8 km/h (2 Bft) 97,43 %
28.07.2018 21:00 23,6 C 21,7 C 21,8 C 57 % 1009,9 hPa 0,0 l/m 0,00 h 0,00 h 10 W/m 7,3 km/h (2 Bft) 99,29 %
28.07.2018 22:00 21,9 C 20,3 C 20,6 C 58 % 1010,9 hPa 0,0 l/m 0,00 h 0,00 h 0 W/m 5,7 km/h (1 Bft) 97,01 %
28.07.2018 23:00 20,9 C 19,3 C 19,6 C 58 % 1011,5 hPa 0,0 l/m 0,00 h 0,00 h 0 W/m 4,4 km/h (1 Bft) 96,21 %
29.07.2018 00:00 19,8 C 18,2 C 18,8 C 64 % 1012,1 hPa 0,0 l/m 0,00 h 0,00 h 0 W/m 2,3 km/h (1 Bft) 98,68 %
29.07.2018 01:00 19,1 C 18,1 C 18,3 C 67 % 1012,2 hPa 0,0 l/m 0,00 h 0,00 h 0 W/m 2,6 km/h (1 Bft) 97,69 %
29.07.2018 02:00 18,7 C 17,3 C 17,7 C 71 % 1012,4 hPa 0,0 l/m 0,00 h 0,00 h 0 W/m 0,9 km/h (0 Bft) 97,72 %
29.07.2018 03:00 18,0 C 16,9 C 17,0 C 75 % 1012,3 hPa 0,0 l/m 0,00 h 0,00 h 0 W/m 0,6 km/h (0 Bft) 97,08 %
29.07.2018 04:00 17,7 C 17,2 C 17,4 C 75 % 1011,9 hPa 0,0 l/m 0,00 h 0,00 h 0 W/m 1,1 km/h (0 Bft) 97,24 %
29.07.2018 05:00 17,7 C 16,7 C 17,0 C 78 % 1011,6 hPa 0,0 l/m 0,00 h 0,00 h 5 W/m 0,0 km/h (0 Bft) 98,78 %
29.07.2018 06:00 17,8 C 17,8 C 17,9 C 85 % 1010,8 hPa 0,0 l/m 0,27 h 0,00 h 33 W/m 3,0 km/h (1 Bft) 96,05 %
29.07.2018 07:00 19,3 C 19,7 C 18,9 C 88 % 1011,2 hPa 0,0 l/m 0,00 h 0,00 h 67 W/m 9,0 km/h (2 Bft) 96,56 %
29.07.2018 08:00 20,1 C 20,7 C 19,4 C 83 % 1011,1 hPa 0,0 l/m 0,20 h 0,00 h 150 W/m 9,7 km/h (2 Bft) 99,72 %
29.07.2018 09:00 21,4 C 23,1 C 20,9 C 70 % 1011,1 hPa 0,0 l/m 0,70 h 0,00 h 292 W/m 10,5 km/h (2 Bft) 97,63 %
29.07.2018 10:00 23,6 C 25,6 C 22,9 C 57 % 1011,1 hPa 0,0 l/m 0,77 h 0,00 h 378 W/m 9,2 km/h (2 Bft) 96,10 %
29.07.2018 11:00 25,5 C 27,3 C 24,3 C 51 % 1011,0 hPa 0,0 l/m 0,77 h 0,00 h 430 W/m 11,6 km/h (2 Bft) 98,86 %
29.07.2018 12:00 25,7 C 26,1 C 24,3 C 50 % 1010,8 hPa 0,0 l/m 0,00 h 0,00 h 303 W/m 10,1 km/h (2 Bft) 98,65 %
29.07.2018 13:00 26,1 C 27,0 C 25,0 C 47 % 1010,6 hPa 0,0 l/m 0,10 h 0,00 h 369 W/m 12,3 km/h (3 Bft) 96,09 %
29.07.2018 14:00 26,8 C 27,7 C 25,6 C 45 % 1010,3 hPa 0,0 l/m 0,47 h 0,00 h 412 W/m 11,9 km/h (2 Bft) 97,16 %
29.07.2018 15:00 28,3 C 29,2 C 27,1 C 43 % 1009,9 hPa 0,0 l/m 0,83 h 0,00 h 428 W/m 10,7 km/h (2 Bft) 99,86 %
29.07.2018 16:00 28,9 C 29,7 C 27,4 C 42 % 1009,5 hPa 0,0 l/m 0,97 h 0,00 h 426 W/m 10,7 km/h (2 Bft) 95,91 %
29.07.2018 17:00 29,5 C 29,9 C 28,0 C 40 % 1009,2 hPa 0,0 l/m 0,97 h 0,00 h 419 W/m 10,4 km/h (2 Bft) 96,94 %
29.07.2018 18:00 30,4 C 30,0 C 28,6 C 40 % 1008,8 hPa 0,0 l/m 0,73 h 0,00 h 361 W/m 10,0 km/h (2 Bft) 99,64 %
29.07.2018 19:00 29,9 C 29,0 C 27,9 C 40 % 1008,8 hPa 0,0 l/m 0,33 h 0,00 h 129 W/m 8,0 km/h (2 Bft) 97,06 %
29.07.2018 20:00 28,9 C 27,6 C 26,9 C 44 % 1009,3 hPa 0,0 l/m 0,00 h 0,00 h 34 W/m 4,5 km/h (1 Bft) 96,38 %
29.07.2018 21:00 27,9 C 26,6 C 25,7 C 48 % 1010,0 hPa 0,0 l/m 0,00 h 0,00 h 10 W/m 3,8 km/h (1 Bft) 98,72 %
29.07.2018 22:00 26,8 C 25,4 C 24,5 C 51 % 1010,7 hPa 0,0 l/m 0,00 h 0,00 h 0 W/m 3,9 km/h (1 Bft) 98,08 %
29.07.2018 23:00 25,6 C 23,8 C 23,0 C 55 % 1011,1 hPa 0,0 l/m 0,00 h 0,00 h 0 W/m 0,8 km/h (0 Bft) 96,71 %
Min-Datum _ 23.07.18 23.07.18 23.07.18 27.07.18 28.07.18 - - - - 23.07.18 26.07.18
_ Min-Zeit 05:34 05:10 05:20 18:18 07:12 - - - - 00:00 00:02
Minimum _ 16,3 C 15,0 C 15,0 C 31 % 1003,5 hPa - - - - 0,0 km/h (0 Bft) 11,76 %
Max-Datum _ 26.07.18 26.07.18 26.07.18 26.07.18 23.07.18 25.07.18 27.07.18 25.07.18 28.07.18 28.07.18 23.07.18
_ Max-Zeit 16:02 12:14 15:48 07:48 09:18 16:28 14:01 16:14 13:18 18:12 00:00
Maximum _ 37,2 C 43,3 C 33,9 C 92 % 1015,5 hPa 0,4 l/m 0,08 h 0,03 h 1039 W/m 27,0 km/h
NO (4 Bft)
100,00 %
Durchschnitt _ 26,0 C 26,2 C 23,7 C 63 % 1011,0 hPa #1,0 l/m #57:00 h #1:24 h 334 W/m 5,2 km/h (1 Bft) 97,58 %
© 2018 W. Hausmann